Aérodrome :
LOGIN :

S'inscrire | Disclaimer

   EN    FR    IT 

 










Légende :    VFR   VFR Marginal   IFR   IFR Intensif   IFR Très Intensif
Visi : 
Plafond : 
>= 8 km
>= 3000ft
5 à 8 km
1000 à 3000 ft
1500m à 5 km
500 à 1000 ft
800 à 1500m
200 à 500 ft
< 800m
< 200 ft
Symboles :   Orages  Brouillard  Fortes neiges  Fortes précipitations  Vent > 20 kt
SIGMETs :   Divers  Orages  Givrage  Turbulence  Onde Orograph.  Cendres Volcan.






- Altitude de l'aérodrome : 376 ft


LHKE - Kecskemét

DERNIER METAR :
  • 210615Z 26004KT 0100 -FZDZ FZFG VV002 M01/M01 Q1045 R12/190094 NOSIG RMK RED

METARs EXPIRÉS :
  • 210545Z 28006KT 0100 -FZDZ FZFG VV002 M02/M02 Q1045 R12/190094 NOSIG RMK RED
  • 210515Z 27004KT 0100 -FZDZ FZFG VV002 M01/M01 Q1045 R12/190094 NOSIG RMK RED
  • 210445Z 26004KT 0100 FZFG VV002 M02/M02 Q1045 R12/190094 NOSIG RMK RED
  • 210415Z 28004KT 0100 FZFG VV002 M02/M02 Q1045 R12/190095 NOSIG RMK RED
  • 210345Z 26004KT 0100 FZFG VV002 M02/M02 Q1045 R12/190095 NOSIG RMK RED

TAF COR TAF LHKE
Valide du 21 à 06h jusqu'au 21 à 15h UTC


210545Z 2106/2115 28004KT 0500 FZFG OVC002
TEMPO 2106/2109 0150 FZFG -FZDZ VV001
BECMG 2109/2111 25006KT 1200 BR OVC004
TEMPO 2111/2115 2500 BR BKN007



MET'MAP, la Météo Aéronautique d'un coup d'oeil ! - Copyright ORBIFLY Décembre 2007 - Disclaimer

ORBIFLY MET'MAP TEAM :

Programmation & Développement : Alexandra Zaïnal
Sur une idée originale de : Baudouin d'Aumeries
Assistance à la programmation : Marc-Olivier Méhu
Soutien technique & logistique : Manuel Goepfert

Contact : metmap@orbifly.com




SOURCES & CREDITS :

   NOAA